Terminal Aerodrome Forecast
Issued by NWS

Home | Current Version | Previous Version | Text Only | Print | Product List | Glossary On
Versions: 1 2 3 4 5 6 7 8 9 10 11 12 13 14 15 16
000
FTUS42 KILM 251359 AAA
TAFCRE
TAF AMD
KCRE 251359Z 2514/2612 22008KT P6SM SCT025 SCT060
      TEMPO 2514/2516 BKN020
     FM251600 20011KT P6SM VCSH SCT030 BKN050
     FM251900 20013KT P6SM SCT035 SCT250
     FM260500 22007KT P6SM SCT250=

USA.gov is the U.S. government's official web portal to all federal, state and local government web resources and services.